• Join FlightAware (Why Join?)
  • Login
  • US Flag 
05:12PM EDT


 

Airport Tracker/Info


-or-


 

Live Flight TrackerFlight Track Log ✈ SWA508 ✈ 28-Jul-2013 ✈ TJSJ / SJU - KMCO

Flight Track Log - Related Links

Times and Time Zones

All times are in EDT time to prevent confusion due to time zone crossing. See the SWA508 flight status page for this flight to view local times or setup timezone preferences in your user account.

Time Position Orientation Groundspeed Altitude Reporting Facility
EDT Latitude Longitude Course Direction KTS MPH feet Rate Location/Type
09:37PM 18.4340 -65.9730 75° East 172 198 1,500  Level FlightAware
09:38PM 18.4410 -65.9640 51° Northeast 201 231 1,600 900 Climbing FlightAware
09:38PM 18.4480 -65.9610 22° Northeast 209 241 1,800 1,860 Climbing FlightAware
09:38PM 18.4720 -65.9650 351° North 241 277 2,600 1,980 Climbing FlightAware
09:38PM 18.4840 -65.9710 335° Northwest 250 288 3,000 2,700 Climbing FlightAware
09:39PM 18.5150 -65.9850 337° Northwest 263 303 4,400 2,880 Climbing FlightAware
09:39PM 18.5410 -66.0010 330° Northwest 278 320 5,500 3,000 Climbing FlightAware
09:39PM 18.5560 -66.0160 317° Northwest 282 325 6,400 3,120 Climbing FlightAware
09:40PM 18.5800 -66.0470 309° West 290 334 7,800 2,760 Climbing FlightAware
09:40PM 18.6040 -66.0770 310° West 301 346 9,000 2,700 Climbing FlightAware
09:41PM 18.6200 -66.0970 310° West 304 350 9,900 2,220 Climbing FlightAware
09:41PM 18.6580 -66.1450 310° West 337 388 11,200 1,740 Climbing FlightAware
09:42PM 18.7030 -66.2010 310° West 370 426 12,300 1,620 Climbing FlightAware
09:43PM 18.7470 -66.2560 310° West 396 456 13,400 2,040 Climbing FlightAware
09:43PM 18.8020 -66.3250 310° West 407 468 15,200 2,400 Climbing FlightAware
09:44PM 18.8510 -66.3850 311° West 411 473 16,900 2,220 Climbing FlightAware
09:45PM 18.9060 -66.4550 310° West 420 483 18,400 2,040 Climbing FlightAware
09:45PM 18.9560 -66.5170 310° West 429 494 19,800 1,920 Climbing FlightAware
09:46PM 19.0090 -66.5830 310° West 437 503 21,000 1,860 Climbing FlightAware
09:47PM 19.0570 -66.6430 310° West 443 510 22,200 1,800 Climbing FlightAware
09:47PM 19.1170 -66.7190 310° West 450 518 23,500 1,680 Climbing FlightAware
09:48PM 19.1710 -66.7870 310° West 456 525 24,600 1,500 Climbing FlightAware
09:49PM 19.2220 -66.8510 310° West 463 533 25,500 1,380 Climbing FlightAware
09:50PM 19.2860 -66.9320 310° West 467 537 26,600 1,500 Climbing FlightAware
09:50PM 19.3480 -67.0090 310° West 468 539 27,800 1,560 Climbing FlightAware
09:51PM 19.4030 -67.0790 310° West 469 540 28,800 1,500 Climbing FlightAware
09:52PM 19.4530 -67.1420 310° West 466 536 29,700 1,380 Climbing FlightAware
09:52PM 19.5110 -67.2150 310° West 470 541 30,600 1,200 Climbing FlightAware
09:53PM 19.5690 -67.2880 310° West 472 543 31,400 1,200 Climbing FlightAware
09:54PM 19.6220 -67.3560 310° West 472 543 32,200 1,140 Climbing FlightAware
09:54PM 19.6770 -67.4260 310° West 473 544 32,900 1,140 Climbing FlightAware
09:55PM 19.7360 -67.5010 310° West 471 542 33,800 1,260 Climbing FlightAware
09:56PM 19.7960 -67.5770 310° West 467 537 34,700 1,140 Climbing FlightAware
09:56PM 19.8550 -67.6530 310° West 466 536 35,500 900 Climbing FlightAware
09:57PM 19.9120 -67.7240 310° West 468 539 36,000 300 Climbing FlightAware
09:58PM 19.9720 -67.8020 309° West 472 543 36,000  Level FlightAware
09:58PM 20.0290 -67.8740 310° West 472 543 36,000  Level FlightAware
09:59PM 20.0850 -67.9470 309° West 470 541 36,000  Level FlightAware
10:01PM 20.2420 -68.1510 309° West 469 540 36,000  Level FlightAware
10:02PM 20.3150 -68.2630 305° West 465 535 36,000  Level FlightAware
10:03PM 20.3670 -68.3400 306° West 464 534 36,000  Level FlightAware
10:03PM 20.4210 -68.4200 306° West 463 533 36,000  Level FlightAware
10:04PM 20.4870 -68.5210 305° West 463 533 36,000  Level FlightAware
10:05PM 20.5250 -68.5780 305° West 463 533 36,000  Level FlightAware
10:06PM 20.5750 -68.6540 305° West 463 533 36,000  Level FlightAware
10:06PM 20.6130 -68.7120 305° West 463 533 36,000  Level FlightAware
10:07PM 20.6630 -68.7880 305° West 463 533 36,000  Level FlightAware
10:08PM 20.7010 -68.8470 305° West 463 533 36,000  Level FlightAware
10:09PM 20.7520 -68.9240 305° West 463 533 36,000  Level FlightAware
10:09PM 20.7890 -68.9810 305° West 463 533 36,000  Level FlightAware
10:10PM 20.8400 -69.0590 305° West 463 533 36,000  Level FlightAware
10:10PM 20.8660 -69.0990 305° West 463 533 36,000  Level FlightAware
10:11PM 20.9140 -69.1730 305° West 463 533 36,000  Level FlightAware
10:12PM 20.9660 -69.2510 306° West 463 533 36,000  Level FlightAware
10:12PM 20.9910 -69.2890 305° West 463 533 36,000  Level FlightAware
10:13PM 21.0410 -69.3660 305° West 463 533 36,000  Level FlightAware
10:14PM 21.1806 -69.5647 305° West 452 520 36,000  Level Miami Center
10:15PM 21.2522 -69.6742 305° West 452 520 36,000  Level Miami Center
10:16PM 21.3086 -69.7622 305° West 452 520 36,000  Level Miami Center
10:17PM 21.3958 -69.8956 305° West 452 520 36,000  Level Miami Center
10:18PM 21.4675 -70.0033 306° West 452 520 36,000  Level Miami Center
10:19PM 21.5369 -70.1156 304° West 452 520 36,000  Level Miami Center
10:20PM 21.6086 -70.2258 305° West 452 520 36,000  Level Miami Center
10:21PM 21.6778 -70.3339 305° West 447 514 36,000  Level Miami Center
10:22PM 21.7492 -70.4419 305° West 447 514 36,000  Level Miami Center
10:23PM 21.8206 -70.5522 305° West 452 520 36,000  Level Miami Center
10:24PM 21.8894 -70.6608 304° West 452 520 36,000  Level Miami Center
10:25PM 21.9586 -70.7717 304° West 452 520 36,000  Level Miami Center
10:26PM 22.0319 -70.8822 306° West 452 520 36,000  Level Miami Center
10:27PM 22.1008 -70.9933 304° West 447 514 36,000  Level Miami Center
10:28PM 22.1739 -71.1022 306° West 447 514 36,000  Level Miami Center
10:29PM 22.2428 -71.2133 304° West 447 514 36,000  Level Miami Center
10:30PM 22.3117 -71.3247 304° West 447 514 36,000  Level Miami Center
10:31PM 22.3844 -71.4339 306° West 447 514 36,000  Level Miami Center
10:32PM 22.4531 -71.5433 304° West 447 514 36,000  Level Miami Center
10:33PM 22.5214 -71.6550 304° West 447 514 36,000  Level Miami Center
10:34PM 22.5922 -71.7669 304° West 447 514 36,000  Level Miami Center
10:35PM 22.6606 -71.8767 304° West 447 514 36,000  Level Miami Center
10:36PM 22.7289 -71.9867 304° West 447 514 36,000  Level Miami Center
10:37PM 22.7989 -72.0942 305° West 447 514 36,000  Level Miami Center
10:38PM 22.8692 -72.2042 305° West 447 514 36,000  Level Miami Center
10:39PM 22.9353 -72.3192 302° West 447 514 36,000  Level Miami Center
10:40PM 23.0033 -72.4250 305° West 447 514 36,000  Level Miami Center
10:41PM 23.0608 -72.5381 299° West 442 509 36,000  Level Miami Center
10:42PM 23.1392 -72.6461 308° West 442 509 36,000  Level Miami Center
10:43PM 23.2089 -72.7567 304° West 448 516 36,000  Level Miami Center
10:44PM 23.2725 -72.8656 302° West 442 509 36,000  Level Miami Center
10:45PM 23.3403 -72.9764 304° West 442 509 36,000  Level Miami Center
10:46PM 23.4161 -73.0850 307° West 449 517 36,000  Level Miami Center
10:47PM 23.4772 -73.1964 301° West 449 517 36,000  Level Miami Center
10:48PM 23.5447 -73.3078 303° West 449 517 36,000  Level Miami Center
10:49PM 23.6119 -73.4192 303° West 449 517 36,000  Level Miami Center
10:50PM 23.6794 -73.5308 303° West 449 517 36,000  Level Miami Center
10:51PM 23.7467 -73.6425 303° West 449 517 36,000  Level Miami Center
10:52PM 23.8181 -73.7564 304° West 449 517 36,000  Level Miami Center
10:53PM 23.8869 -73.8683 304° West 449 517 36,000  Level Miami Center
10:54PM 23.9561 -73.9803 304° West 449 517 36,000  Level Miami Center
10:55PM 24.0231 -74.0925 303° West 449 517 36,000  Level Miami Center
10:56PM 24.0897 -74.2025 304° West 449 517 36,000  Level Miami Center
10:57PM 24.1586 -74.3172 303° West 449 517 36,000  Level Miami Center
10:58PM 24.2253 -74.4319 303° West 449 517 36,000  Level Miami Center
10:59PM 24.2939 -74.5425 304° West 449 517 36,000  Level Miami Center
11:00PM 24.3647 -74.6597 304° West 449 517 36,000  Level Miami Center
11:01PM 24.4311 -74.7728 303° West 449 517 36,000  Level Miami Center
11:02PM 24.4975 -74.8833 303° West 449 517 36,000  Level Miami Center
11:03PM 24.5636 -74.9989 302° West 449 517 36,000  Level Miami Center
11:04PM 24.6300 -75.1100 303° West 449 517 36,000  Level Miami Center
11:05PM 24.6981 -75.2233 303° West 449 517 36,000  Level Miami Center
11:06PM 24.7661 -75.3392 303° West 449 517 36,000  Level Miami Center
11:07PM 24.8322 -75.4550 302° West 449 517 36,000  Level Miami Center
11:08PM 24.9000 -75.5689 303° West 456 525 36,000  Level Miami Center
11:09PM 24.9614 -75.6758 302° West 456 525 36,000  Level Miami Center
11:10PM 25.0397 -75.7967 306° West 449 517 36,000  Level Miami Center
11:11PM 25.1219 -75.8925 313° West 444 511 36,000  Level Miami Center
11:12PM 25.2144 -75.9906 316° Northwest 438 504 36,000  Level Miami Center
11:13PM 25.2944 -76.0911 311° West 444 511 36,000  Level Miami Center
11:14PM 25.3681 -76.1986 307° West 444 511 36,000  Level Miami Center
11:15PM 25.4458 -76.3042 309° West 444 511 36,000  Level Miami Center
11:16PM 25.5342 -76.4028 315° West 439 505 36,000  Level Miami Center
11:17PM 25.6178 -76.4992 314° West 444 511 36,000  Level Miami Center
11:18PM 25.7017 -76.5958 314° West 438 504 36,000  Level Miami Center
11:19PM 25.7897 -76.6881 317° Northwest 438 504 36,000  Level Miami Center
11:20PM 25.8836 -76.7825 318° Northwest 438 504 36,000  Level Miami Center
11:21PM 25.9714 -76.8750 317° Northwest 438 504 36,000  Level Miami Center
11:22PM 26.0633 -76.9697 317° Northwest 443 510 36,000  Level Miami Center
11:23PM 26.1531 -77.0647 316° Northwest 443 510 36,000  Level Miami Center
11:24PM 26.2469 -77.1600 318° Northwest 449 517 36,000  Level Miami Center
11:25PM 26.3389 -77.2553 317° Northwest 449 517 36,000  Level Miami Center
11:31PM 26.7780 -77.9010 317° Northwest 453 521 36,000  Level FlightAware
11:31PM 26.8070 -77.9770 293° West 454 522 36,000  Level FlightAware
11:32PM 26.8450 -78.0780 293° West 456 525 36,000  Level FlightAware
11:33PM 26.8880 -78.1920 293° West 458 527 36,000  Level FlightAware
11:34PM 26.9250 -78.2910 293° West 458 527 36,000  Level FlightAware
11:34PM 26.9630 -78.3920 293° West 458 527 36,000  Level FlightAware
11:35PM 27.0020 -78.4960 293° West 458 527 36,000  Level FlightAware
11:36PM 27.0340 -78.5860 292° West 458 527 36,000  Level FlightAware
11:37PM 27.0590 -78.6550 292° West 458 527 36,000  Level FlightAware
11:37PM 27.0980 -78.7550 294° West 455 524 36,000  Level FlightAware
11:38PM 27.1300 -78.8440 292° West 455 524 36,000  Level FlightAware
11:39PM 27.1720 -78.9520 294° West 452 520 36,000 -120 Level FlightAware
11:39PM 27.2070 -79.0480 292° West 449 517 35,900 -660 Descending FlightAware
11:40PM 27.2470 -79.1580 292° West 454 522 35,000 -1,020 Descending FlightAware
11:41PM 27.2800 -79.2470 293° West 457 526 34,400 -960 Descending FlightAware
11:42PM 27.3140 -79.3400 292° West 461 531 33,700 -1,020 Descending FlightAware
11:42PM 27.3450 -79.4240 293° West 459 528 33,100 -1,020 Descending FlightAware
11:43PM 27.3890 -79.5460 292° West 455 524 32,200 -780 Descending FlightAware
11:44PM 27.4270 -79.6490 293° West 461 531 31,800 -660 Descending FlightAware
11:45PM 27.4540 -79.7260 292° West 457 526 31,300 -1,320 Descending FlightAware
11:45PM 27.4910 -79.8270 292° West 472 543 30,200 -1,380 Descending FlightAware
11:46PM 27.5220 -79.9120 292° West 469 540 29,600 -900 Descending FlightAware
11:47PM 27.5560 -80.0080 292° West 472 543 29,000 -960 Descending FlightAware
11:47PM 27.5860 -80.0910 292° West 474 545 28,400 -600 Descending FlightAware
11:48PM 27.6270 -80.2090 291° West 474 545 28,100 -720 Descending FlightAware
11:49PM 27.6590 -80.2990 292° West 474 545 27,300 -600 Descending FlightAware
11:50PM 27.6910 -80.3930 291° West 474 545 27,300  Level FlightAware
11:50PM 27.7150 -80.4640 291° West 474 545 27,300 -4,200 Level FlightAware
11:51PM 27.7650 -80.5930 294° West 431 496 21,500 -5,160 Descending FlightAware
11:52PM 27.7910 -80.6670 292° West 416 479 20,100 -1,440 Descending FlightAware
11:52PM 27.8100 -80.7250 290° West 416 479 19,800 -300 Descending FlightAware
11:53PM 27.8300 -80.7880 290° West 416 479 19,800  Level FlightAware
11:54PM 27.8570 -80.8710 290° West 416 479 19,800  Level FlightAware
11:54PM 27.8770 -80.9340 290° West 416 479 19,800  Level FlightAware
11:55PM 27.8970 -80.9970 290° West 416 479 19,800  Level FlightAware
11:56PM 27.9240 -81.0800 290° West 416 479 19,800 -6,300 Level FlightAware
11:56PM 28.0370 -81.1450 333° Northwest 343 395 10,300 -8,340 Descending FlightAware
11:57PM 28.0790 -81.1590 344° North 327 376 9,800 -420 Descending FlightAware
11:58PM 28.1320 -81.1770 343° North 326 375 9,800  Level FlightAware
11:58PM 28.1590 -81.1860 344° North 326 375 9,800  Level FlightAware
11:58PM 28.1900 -81.1970 343° North 326 375 9,800 -1,860 Level FlightAware
12:00AM 28.2950 -81.1870 North 285 328 6,900 -2,400 Descending FlightAware
12:00AM 28.3050 -81.1870 360° North 283 326 6,700 -1,320 Descending FlightAware
12:00AM 28.3320 -81.1870 360° North 280 322 6,300 -1,320 Descending FlightAware
12:00AM 28.3440 -81.1870 360° North 280 322 6,000 -1,440 Descending FlightAware
12:01AM 28.3980 -81.1870 360° North 278 320 5,100 -1,260 Descending FlightAware
12:01AM 28.4260 -81.1870 360° North 272 313 4,700 -1,500 Descending FlightAware
12:02AM 28.4590 -81.1870 360° North 270 311 3,900 -1,680 Descending FlightAware
12:02AM 28.4780 -81.1920 347° North 264 304 3,500 -1,800 Descending FlightAware
12:02AM 28.4900 -81.2000 330° Northwest 253 291 3,000 -840 Descending FlightAware
12:03AM 28.5110 -81.2170 325° Northwest 253 291 2,900 -1,080 Descending FlightAware
12:04AM 28.4910 -81.2000 143° Southeast 253 291 1,600 -1,080 Descending FlightAware
12:04AM 28.5050 -81.2230 305° West 253 291 1,600 -720 Level FlightAware
12:05AM 28.4667 -81.3000 305° West 142 163 900 -1,200 Descending Orlando TRACON
12:07AM 28.4294 -81.3090 199° South  Level Estimated